createdAt,value
2019-02-10T00:00:43.742Z,22.48
2019-02-10T00:03:15.210Z,23.12
2019-02-10T00:05:46.617Z,24.45
2019-02-10T00:08:18.090Z,23.20
2019-02-10T00:10:49.617Z,23.25
2019-02-10T00:13:28.939Z,23.63
2019-02-10T00:16:01.073Z,23.87
2019-02-10T00:18:32.755Z,23.83
2019-02-10T00:21:04.137Z,24.32
2019-02-10T00:23:35.660Z,24.37
2019-02-10T00:26:07.294Z,23.90
2019-02-10T00:28:38.855Z,24.65
2019-02-10T00:31:10.532Z,23.87
2019-02-10T00:33:42.059Z,23.75
2019-02-10T00:36:13.702Z,24.30
2019-02-10T00:38:45.211Z,25.40
2019-02-10T00:41:16.580Z,25.08
2019-02-10T00:43:48.151Z,26.82
2019-02-10T00:46:19.583Z,25.23
2019-02-10T00:48:51.356Z,23.95
2019-02-10T00:51:23.010Z,24.00
2019-02-10T00:53:54.499Z,24.70
2019-02-10T00:56:25.942Z,23.27
2019-02-10T00:58:57.791Z,23.80
2019-02-10T01:01:29.073Z,25.60
2019-02-10T01:04:00.734Z,24.37
2019-02-10T01:06:32.391Z,23.20
2019-02-10T01:09:05.071Z,24.25
2019-02-10T01:11:36.462Z,24.63
2019-02-10T01:14:07.968Z,25.45
2019-02-10T01:16:39.182Z,25.12
2019-02-10T01:19:11.767Z,24.60
2019-02-10T01:21:45.675Z,24.95
2019-02-10T01:24:17.150Z,24.75
2019-02-10T01:26:48.726Z,26.10
2019-02-10T01:29:21.823Z,26.68
2019-02-10T01:31:53.369Z,26.27
2019-02-10T01:34:24.922Z,26.33
2019-02-10T01:36:56.668Z,25.55
2019-02-10T01:39:28.284Z,26.17
2019-02-10T01:41:59.677Z,25.15
2019-02-10T01:44:31.569Z,25.00
2019-02-10T01:47:03.484Z,25.97
2019-02-10T01:49:35.208Z,25.45
2019-02-10T01:52:07.835Z,25.40
2019-02-10T01:54:39.491Z,24.72
2019-02-10T01:57:11.013Z,28.15
2019-02-10T01:59:42.398Z,28.25
2019-02-10T02:02:14.351Z,30.97
2019-02-10T02:04:46.078Z,32.15
2019-02-10T02:07:18.211Z,36.00
2019-02-10T02:09:49.846Z,34.38
2019-02-10T02:12:21.495Z,28.83
2019-02-10T02:14:53.029Z,27.60
2019-02-10T02:17:24.493Z,24.70
2019-02-10T02:19:56.229Z,23.75
2019-02-10T02:22:27.841Z,25.95
2019-02-10T02:24:59.228Z,24.63
2019-02-10T02:27:30.669Z,24.55
2019-02-10T02:30:02.219Z,24.85
2019-02-10T02:32:33.760Z,24.98
2019-02-10T02:35:05.381Z,24.20
2019-02-10T02:37:37.856Z,24.30
2019-02-10T02:40:11.203Z,25.90
2019-02-10T02:42:42.719Z,25.55
2019-02-10T02:45:14.414Z,25.75
2019-02-10T02:47:46.647Z,26.10
2019-02-10T02:50:18.267Z,26.57
2019-02-10T02:52:49.425Z,26.87
2019-02-10T02:55:21.025Z,25.43
2019-02-10T02:57:52.432Z,26.50
2019-02-10T03:00:24.252Z,26.15
2019-02-10T03:02:55.825Z,27.80
2019-02-10T03:05:28.341Z,28.98
2019-02-10T03:07:59.651Z,26.97
2019-02-10T03:10:31.207Z,28.52
2019-02-10T03:13:02.766Z,29.98
2019-02-10T03:15:34.325Z,28.75
2019-02-10T03:18:05.708Z,28.87
2019-02-10T03:20:37.207Z,27.70
2019-02-10T03:23:08.461Z,28.32
2019-02-10T03:25:40.171Z,28.25
2019-02-10T03:28:11.933Z,28.47
2019-02-10T03:30:43.306Z,29.35
2019-02-10T03:33:15.066Z,29.82
2019-02-10T03:35:47.264Z,29.52
2019-02-10T03:38:18.794Z,28.60
2019-02-10T03:40:50.307Z,28.55
2019-02-10T03:43:21.866Z,29.65
2019-02-10T03:45:53.378Z,28.50
2019-02-10T03:48:24.935Z,29.40
2019-02-10T03:50:56.839Z,27.95
2019-02-10T03:53:28.321Z,28.15
2019-02-10T03:55:59.788Z,27.82
2019-02-10T03:58:31.352Z,27.55
2019-02-10T04:01:02.759Z,26.65
2019-02-10T04:03:34.357Z,28.55
2019-02-10T04:06:05.738Z,29.07
2019-02-10T04:08:37.451Z,27.90
2019-02-10T04:11:09.088Z,31.00
2019-02-10T04:13:40.676Z,29.65
2019-02-10T04:16:13.081Z,31.12
2019-02-10T04:18:44.718Z,32.20
2019-02-10T04:21:17.376Z,31.87
2019-02-10T04:23:48.979Z,31.05
2019-02-10T04:26:21.529Z,30.72
2019-02-10T04:28:53.286Z,31.60
2019-02-10T04:31:24.929Z,31.73
2019-02-10T04:33:56.603Z,31.30
2019-02-10T04:36:28.045Z,29.50
2019-02-10T04:38:59.726Z,28.05
2019-02-10T04:41:31.064Z,27.17
2019-02-10T04:44:02.607Z,24.85
2019-02-10T04:46:33.838Z,27.15
2019-02-10T04:49:05.237Z,27.90
2019-02-10T04:51:48.008Z,28.30
2019-02-10T04:54:19.278Z,27.70
2019-02-10T04:56:51.475Z,26.45
2019-02-10T04:59:23.029Z,25.62
2019-02-10T05:01:54.658Z,26.73
2019-02-10T05:04:26.135Z,28.10
2019-02-10T05:06:57.441Z,29.37
2019-02-10T05:09:29.013Z,32.13
2019-02-10T05:12:00.563Z,30.43
2019-02-10T05:14:32.234Z,29.20
2019-02-10T05:17:03.794Z,27.65
2019-02-10T05:19:35.277Z,26.95
2019-02-10T05:22:07.047Z,28.30
2019-02-10T05:24:38.494Z,28.07
2019-02-10T05:27:10.088Z,28.38
2019-02-10T05:29:41.767Z,28.52
2019-02-10T05:32:14.952Z,29.92
2019-02-10T05:34:46.581Z,33.65
2019-02-10T05:37:18.140Z,34.40
2019-02-10T05:39:50.633Z,34.13
2019-02-10T05:42:22.152Z,33.63
2019-02-10T05:44:53.862Z,31.97
2019-02-10T05:47:25.557Z,31.80
2019-02-10T05:49:57.139Z,32.85
2019-02-10T05:52:29.623Z,30.55
2019-02-10T05:55:01.273Z,34.30
2019-02-10T05:57:33.809Z,38.33
2019-02-10T06:00:05.621Z,34.80
2019-02-10T06:02:37.428Z,34.67
2019-02-10T06:05:18.605Z,33.35
2019-02-10T06:07:50.589Z,31.48
2019-02-10T06:10:22.172Z,30.02
2019-02-10T06:12:53.783Z,28.10
2019-02-10T06:15:25.322Z,26.80
2019-02-10T06:17:56.893Z,28.62
2019-02-10T06:20:28.549Z,27.40
2019-02-10T06:23:00.012Z,26.90
2019-02-10T06:25:31.657Z,27.42
2019-02-10T06:28:03.332Z,27.85
2019-02-10T06:30:35.015Z,26.60
2019-02-10T06:33:06.750Z,28.62
2019-02-10T06:35:39.055Z,28.57
2019-02-10T06:38:10.639Z,28.92
2019-02-10T06:40:42.205Z,27.20
2019-02-10T06:43:13.576Z,28.85
2019-02-10T06:45:46.042Z,29.50
2019-02-10T06:48:17.839Z,28.37
2019-02-10T06:50:49.652Z,28.52
2019-02-10T06:53:21.211Z,26.83
2019-02-10T06:55:54.725Z,26.87
2019-02-10T06:58:26.246Z,27.20
2019-02-10T07:01:25.531Z,27.50
2019-02-10T07:04:09.725Z,26.82
2019-02-10T07:06:41.394Z,27.07
2019-02-10T07:09:13.063Z,27.00
2019-02-10T07:11:44.770Z,29.10
2019-02-10T07:14:28.191Z,28.90
2019-02-10T07:17:29.932Z,27.30
2019-02-10T07:20:36.821Z,28.07
2019-02-10T07:23:34.805Z,28.53
2019-02-10T07:26:17.362Z,26.73
2019-02-10T07:29:11.150Z,27.93
2019-02-10T07:32:00.431Z,27.63
2019-02-10T07:34:58.245Z,29.20
2019-02-10T07:38:01.985Z,29.90
2019-02-10T07:41:00.754Z,28.63
2019-02-10T07:44:08.908Z,28.07
2019-02-10T07:47:15.914Z,29.47
2019-02-10T07:50:14.488Z,31.30
2019-02-10T07:53:21.091Z,29.93
2019-02-10T07:56:35.484Z,34.07
2019-02-10T08:00:13.016Z,30.77
2019-02-10T08:02:56.198Z,31.53
2019-02-10T08:06:02.652Z,32.93
2019-02-10T08:08:51.538Z,39.27
2019-02-10T08:11:50.854Z,49.90
2019-02-10T08:14:51.442Z,38.43
2019-02-10T08:17:47.115Z,38.87
2019-02-10T08:20:46.755Z,34.50
2019-02-10T08:23:53.824Z,32.63
2019-02-10T08:26:36.309Z,36.53
2019-02-10T08:29:35.934Z,33.80
2019-02-10T08:32:42.663Z,33.67
2019-02-10T08:35:53.105Z,33.40
2019-02-10T08:38:39.796Z,31.47
2019-02-10T08:41:32.216Z,32.13
2019-02-10T08:44:41.003Z,32.33
2019-02-10T08:47:52.186Z,32.00
2019-02-10T08:51:04.149Z,31.77
2019-02-10T08:53:39.311Z,33.83
2019-02-10T08:56:12.449Z,35.37
2019-02-10T08:58:44.554Z,36.97
2019-02-10T09:01:16.115Z,31.53
2019-02-10T09:03:47.713Z,33.63
2019-02-10T09:06:19.210Z,30.50
2019-02-10T09:08:50.831Z,33.43
2019-02-10T09:11:22.549Z,28.87
2019-02-10T09:13:55.507Z,32.40
2019-02-10T09:16:27.798Z,29.43
2019-02-10T09:18:59.240Z,44.70
2019-02-10T09:21:31.966Z,40.07
2019-02-10T09:24:05.658Z,33.10
2019-02-10T09:26:37.141Z,42.07
2019-02-10T09:29:08.603Z,37.00
2019-02-10T09:31:40.239Z,43.03
2019-02-10T09:34:12.567Z,42.27
2019-02-10T09:36:44.692Z,34.17
2019-02-10T09:39:16.349Z,31.47
2019-02-10T09:41:48.028Z,35.40
2019-02-10T09:44:19.448Z,32.57
2019-02-10T09:46:51.041Z,35.73
2019-02-10T09:49:22.671Z,29.33
2019-02-10T09:51:54.115Z,28.80
2019-02-10T09:54:26.288Z,28.43
2019-02-10T09:56:58.070Z,28.23
2019-02-10T09:59:30.114Z,27.67
2019-02-10T10:02:01.713Z,27.67
2019-02-10T10:04:33.866Z,28.33
2019-02-10T10:07:05.822Z,25.93
2019-02-10T10:09:49.242Z,26.13
2019-02-10T10:12:20.838Z,30.83
2019-02-10T10:14:52.773Z,26.77
2019-02-10T10:17:24.801Z,34.47
2019-02-10T10:19:56.507Z,28.03
2019-02-10T10:22:29.046Z,28.17
2019-02-10T10:25:00.785Z,29.23
2019-02-10T10:27:33.331Z,27.87
2019-02-10T10:30:05.330Z,26.83
2019-02-10T10:32:37.580Z,27.37
2019-02-10T10:35:09.401Z,28.67
2019-02-10T10:37:41.025Z,27.97
2019-02-10T10:40:12.566Z,29.43
2019-02-10T10:42:43.995Z,30.90
2019-02-10T10:45:15.706Z,32.83
2019-02-10T10:47:48.443Z,30.73
2019-02-10T10:50:20.119Z,33.77
2019-02-10T10:52:51.686Z,35.57
2019-02-10T10:55:23.412Z,43.17
2019-02-10T10:57:54.716Z,34.43
2019-02-10T11:00:26.241Z,31.50
2019-02-10T11:02:57.573Z,32.03
2019-02-10T11:05:29.139Z,40.17
2019-02-10T11:08:00.602Z,33.93
2019-02-10T11:10:32.107Z,37.90
2019-02-10T11:13:03.856Z,32.83
2019-02-10T11:15:36.245Z,33.47
2019-02-10T11:18:07.774Z,32.70
2019-02-10T11:20:39.190Z,41.63
2019-02-10T11:23:10.813Z,37.10
2019-02-10T11:25:42.243Z,35.07
2019-02-10T11:28:13.602Z,34.80
2019-02-10T11:30:45.088Z,34.93
2019-02-10T11:33:16.640Z,33.60
2019-02-10T11:35:48.537Z,34.57
2019-02-10T11:38:32.213Z,35.00
2019-02-10T11:41:03.849Z,38.00
2019-02-10T11:43:35.211Z,36.47
2019-02-10T11:46:06.911Z,37.13
2019-02-10T11:48:39.686Z,35.67
2019-02-10T11:51:11.507Z,33.60
2019-02-10T11:53:42.854Z,33.83
2019-02-10T11:56:18.137Z,36.13
2019-02-10T11:58:50.734Z,37.83
2019-02-10T12:01:22.575Z,36.20
2019-02-10T12:03:54.933Z,37.47
2019-02-10T12:06:26.271Z,39.47
2019-02-10T12:08:57.705Z,37.43
2019-02-10T12:11:29.381Z,37.97
2019-02-10T12:14:00.979Z,40.17
2019-02-10T12:16:32.620Z,41.77
2019-02-10T12:19:04.302Z,39.20
2019-02-10T12:21:35.779Z,39.20
2019-02-10T12:24:13.550Z,37.70
2019-02-10T12:26:50.272Z,35.20
2019-02-10T12:29:22.594Z,34.83
2019-02-10T12:31:53.962Z,33.27
2019-02-10T12:34:25.837Z,33.97
2019-02-10T12:36:57.253Z,34.13
2019-02-10T12:39:28.682Z,35.53
2019-02-10T12:42:00.246Z,35.43
2019-02-10T12:44:31.716Z,33.37
2019-02-10T12:47:04.085Z,36.13
2019-02-10T12:49:35.619Z,35.70
2019-02-10T12:52:08.416Z,35.93
2019-02-10T12:54:40.214Z,34.70
2019-02-10T12:57:11.674Z,34.27
2019-02-10T12:59:43.180Z,34.77
2019-02-10T13:02:14.730Z,33.70
2019-02-10T13:04:46.293Z,34.47
2019-02-10T13:07:17.961Z,36.10
2019-02-10T13:09:50.310Z,35.70
2019-02-10T13:12:21.784Z,35.77
2019-02-10T13:14:53.431Z,34.80
2019-02-10T13:17:26.266Z,32.73
2019-02-10T13:19:58.479Z,35.97
2019-02-10T13:22:30.251Z,34.73
2019-02-10T13:25:02.166Z,39.00
2019-02-10T13:27:33.670Z,36.67
2019-02-10T13:30:06.017Z,37.53
2019-02-10T13:32:37.663Z,38.03
2019-02-10T13:35:09.262Z,37.57
2019-02-10T13:37:40.791Z,40.13
2019-02-10T13:40:16.753Z,38.07
2019-02-10T13:42:48.400Z,38.97
2019-02-10T13:45:20.228Z,33.47
2019-02-10T13:47:51.870Z,32.70
2019-02-10T13:50:23.450Z,34.60
2019-02-10T13:52:55.070Z,32.57
2019-02-10T13:55:26.560Z,31.90
2019-02-10T13:57:59.276Z,32.57
2019-02-10T14:00:30.829Z,33.23
2019-02-10T14:03:02.239Z,33.53
2019-02-10T14:05:33.859Z,34.67
2019-02-10T14:08:05.250Z,34.80
2019-02-10T14:10:36.742Z,34.33
2019-02-10T14:13:08.915Z,36.20
2019-02-10T14:15:40.678Z,35.90
2019-02-10T14:18:12.443Z,35.33
2019-02-10T14:20:44.080Z,31.77
2019-02-10T14:23:15.463Z,35.47
2019-02-10T14:25:46.951Z,33.30
2019-02-10T14:28:19.076Z,32.90
2019-02-10T14:30:51.842Z,32.43
2019-02-10T14:33:23.609Z,34.00
2019-02-10T14:35:55.373Z,35.13
2019-02-10T14:38:26.914Z,34.33
2019-02-10T14:40:58.576Z,34.87
2019-02-10T14:43:30.238Z,38.50
2019-02-10T14:46:01.996Z,35.77
2019-02-10T14:48:33.627Z,36.80
2019-02-10T14:51:05.328Z,36.80
2019-02-10T14:53:37.539Z,35.47
2019-02-10T14:56:09.753Z,40.55
2019-02-10T14:58:43.206Z,35.77
2019-02-10T15:01:14.672Z,34.50
2019-02-10T15:03:46.066Z,36.20
2019-02-10T15:06:17.510Z,41.73
2019-02-10T15:08:49.113Z,40.73
2019-02-10T15:11:21.739Z,42.57
2019-02-10T15:13:53.487Z,42.27
2019-02-10T15:16:26.336Z,40.70
2019-02-10T15:18:57.883Z,43.53
2019-02-10T15:21:29.494Z,46.43
2019-02-10T15:24:01.145Z,48.87
2019-02-10T15:26:32.720Z,47.07
2019-02-10T15:29:04.167Z,46.87
2019-02-10T15:31:36.425Z,59.40
2019-02-10T15:34:07.902Z,76.63
2019-02-10T15:36:39.752Z,66.90
2019-02-10T15:39:11.558Z,60.17
2019-02-10T15:41:43.093Z,57.63
2019-02-10T15:44:14.463Z,58.83
2019-02-10T15:46:46.030Z,59.03
2019-02-10T15:49:17.543Z,60.27
2019-02-10T15:51:49.195Z,65.70
2019-02-10T15:54:20.649Z,62.30
2019-02-10T15:56:52.744Z,81.27
2019-02-10T15:59:24.041Z,92.07
2019-02-10T16:01:55.586Z,113.53
2019-02-10T16:04:26.874Z,105.13
2019-02-10T16:06:58.472Z,103.47
2019-02-10T16:09:30.063Z,83.10
2019-02-10T16:12:03.094Z,85.20
2019-02-10T16:14:34.858Z,86.37
2019-02-10T16:17:06.549Z,83.80
2019-02-10T16:19:56.940Z,75.33
2019-02-10T16:22:28.615Z,71.17
2019-02-10T16:25:00.774Z,70.50
2019-02-10T16:27:32.928Z,67.97
2019-02-10T16:30:05.547Z,69.60
2019-02-10T16:32:37.209Z,65.70
2019-02-10T16:35:09.343Z,63.43
2019-02-10T16:37:41.911Z,60.73
2019-02-10T16:40:17.109Z,57.05
2019-02-10T16:42:49.884Z,59.48
2019-02-10T16:45:21.467Z,58.00
2019-02-10T16:47:53.070Z,46.95
2019-02-10T16:50:24.838Z,53.13
2019-02-10T16:52:56.710Z,62.60
2019-02-10T16:55:28.529Z,68.57
2019-02-10T16:58:00.897Z,68.85
2019-02-10T17:00:33.275Z,72.03
2019-02-10T17:03:05.057Z,80.35
2019-02-10T17:05:36.865Z,72.97
2019-02-10T17:08:08.676Z,72.80
2019-02-10T17:10:40.373Z,68.78
2019-02-10T17:13:12.241Z,59.03
2019-02-10T17:15:44.007Z,51.68
2019-02-10T17:18:15.841Z,47.65
2019-02-10T17:20:47.744Z,46.33
2019-02-10T17:23:19.887Z,44.20
2019-02-10T17:25:51.847Z,42.88
2019-02-10T17:28:23.500Z,44.35
2019-02-10T17:30:55.167Z,48.58
2019-02-10T17:33:26.973Z,48.78
2019-02-10T17:35:58.817Z,48.85
2019-02-10T17:38:31.897Z,51.48
2019-02-10T17:41:26.986Z,54.40
2019-02-10T17:43:59.997Z,55.80
2019-02-10T17:46:31.575Z,55.45
2019-02-10T17:49:04.459Z,56.53
2019-02-10T17:51:36.180Z,55.20
2019-02-10T17:54:07.847Z,55.12
2019-02-10T17:56:39.455Z,53.52
2019-02-10T17:59:11.344Z,53.55
2019-02-10T18:01:43.528Z,54.05
2019-02-10T18:04:15.221Z,56.37
2019-02-10T18:06:46.566Z,55.73
2019-02-10T18:09:18.011Z,55.05
2019-02-10T18:11:49.600Z,55.88
2019-02-10T18:14:47.034Z,56.73
2019-02-10T18:17:24.405Z,58.45
2019-02-10T18:20:17.382Z,63.00
2019-02-10T18:23:17.205Z,68.07
2019-02-10T18:26:06.557Z,67.22
2019-02-10T18:29:03.482Z,56.25
2019-02-10T18:31:43.846Z,53.20
2019-02-10T18:34:25.338Z,53.20
2019-02-10T18:37:15.487Z,52.90
2019-02-10T18:39:55.642Z,51.68
2019-02-10T18:42:52.234Z,54.03
2019-02-10T18:45:36.066Z,72.12
2019-02-10T18:48:19.805Z,54.38
2019-02-10T18:51:06.935Z,52.30
2019-02-10T18:53:57.371Z,48.92
2019-02-10T18:56:47.164Z,54.73
2019-02-10T18:59:41.646Z,57.38
2019-02-10T19:02:34.120Z,71.25
2019-02-10T19:05:24.795Z,69.67
2019-02-10T19:08:18.884Z,67.05
2019-02-10T19:11:00.688Z,68.35
2019-02-10T19:13:49.592Z,69.90
2019-02-10T19:16:42.876Z,62.90
2019-02-10T19:19:27.486Z,54.63
2019-02-10T19:22:16.499Z,52.08
2019-02-10T19:25:22.124Z,52.17
2019-02-10T19:28:31.028Z,49.63
2019-02-10T19:31:24.499Z,49.50
2019-02-10T19:34:18.151Z,52.50
2019-02-10T19:37:08.959Z,63.23
2019-02-10T19:40:09.015Z,55.17
2019-02-10T19:42:51.396Z,61.15
2019-02-10T19:45:47.481Z,61.77
2019-02-10T19:48:53.290Z,55.98
2019-02-10T19:51:44.001Z,54.20
2019-02-10T19:54:37.512Z,49.20
2019-02-10T19:57:28.006Z,47.60
2019-02-10T20:00:33.711Z,46.48
2019-02-10T20:03:35.933Z,47.50
2019-02-10T20:06:41.855Z,45.98
2019-02-10T20:09:41.601Z,45.67
2019-02-10T20:12:30.544Z,48.52
2019-02-10T20:15:19.368Z,50.08
2019-02-10T20:18:21.919Z,49.85
2019-02-10T20:21:22.338Z,50.48
2019-02-10T20:24:21.581Z,49.93
2019-02-10T20:27:11.789Z,50.52
2019-02-10T20:30:05.107Z,48.83
2019-02-10T20:33:04.529Z,51.30
2019-02-10T20:36:00.785Z,47.65
2019-02-10T20:39:00.135Z,51.68
2019-02-10T20:41:57.315Z,50.48
2019-02-10T20:44:47.515Z,48.80
2019-02-10T20:47:34.451Z,52.70
2019-02-10T20:50:19.477Z,62.85
2019-02-10T20:53:21.694Z,70.78
2019-02-10T20:56:02.635Z,68.33
2019-02-10T20:58:52.198Z,72.67
2019-02-10T21:01:50.016Z,66.10
2019-02-10T21:04:32.616Z,63.98
2019-02-10T21:07:22.264Z,69.35
2019-02-10T21:10:10.424Z,66.80
2019-02-10T21:13:00.659Z,71.67
2019-02-10T21:15:57.082Z,60.65
2019-02-10T21:18:46.298Z,59.85
2019-02-10T21:21:51.563Z,60.15
2019-02-10T21:24:48.074Z,59.63
2019-02-10T21:27:41.409Z,63.60
2019-02-10T21:30:31.726Z,65.87
2019-02-10T21:33:24.749Z,71.57
2019-02-10T21:36:24.623Z,67.75
2019-02-10T21:39:17.539Z,67.20
2019-02-10T21:42:12.875Z,64.40
2019-02-10T21:45:13.725Z,59.27
2019-02-10T21:47:56.110Z,59.53
2019-02-10T21:50:27.573Z,60.83
2019-02-10T21:52:59.134Z,60.10
2019-02-10T21:55:30.710Z,63.80
2019-02-10T21:58:03.192Z,73.62
2019-02-10T22:00:34.718Z,79.45
2019-02-10T22:03:06.244Z,69.53
2019-02-10T22:05:37.833Z,63.58
2019-02-10T22:08:09.457Z,68.65
2019-02-10T22:10:40.811Z,61.90
2019-02-10T22:13:12.424Z,63.78
2019-02-10T22:15:43.747Z,64.82
2019-02-10T22:18:15.387Z,60.20
2019-02-10T22:20:47.066Z,56.88
2019-02-10T22:23:18.633Z,66.30
2019-02-10T22:25:50.122Z,72.35
2019-02-10T22:28:21.510Z,69.00
2019-02-10T22:30:53.243Z,66.35
2019-02-10T22:33:24.882Z,62.50
2019-02-10T22:35:56.252Z,57.95
2019-02-10T22:38:28.064Z,55.48
2019-02-10T22:41:00.368Z,60.58
2019-02-10T22:43:32.197Z,60.85
2019-02-10T22:46:03.796Z,55.63
2019-02-10T22:48:35.332Z,52.95
2019-02-10T22:51:06.909Z,53.28
2019-02-10T22:53:38.479Z,51.33
2019-02-10T22:56:10.168Z,51.60
2019-02-10T22:58:41.969Z,51.30
2019-02-10T23:01:13.479Z,49.88
2019-02-10T23:03:45.216Z,50.12
2019-02-10T23:06:16.803Z,49.27
2019-02-10T23:08:48.299Z,51.10
2019-02-10T23:11:19.941Z,51.10
2019-02-10T23:13:51.563Z,51.92
2019-02-10T23:16:23.737Z,51.30
2019-02-10T23:18:55.210Z,49.95
2019-02-10T23:21:26.851Z,51.70
2019-02-10T23:23:58.115Z,51.18
2019-02-10T23:26:29.703Z,48.63
2019-02-10T23:29:01.375Z,48.17
2019-02-10T23:31:32.702Z,50.75
2019-02-10T23:34:04.110Z,48.17
2019-02-10T23:36:35.627Z,48.60
2019-02-10T23:39:07.710Z,48.98
2019-02-10T23:41:39.829Z,49.77
2019-02-10T23:44:12.258Z,47.58
2019-02-10T23:46:44.043Z,45.12
2019-02-10T23:49:15.345Z,48.13
2019-02-10T23:51:46.837Z,47.65
2019-02-10T23:54:19.108Z,54.35
2019-02-10T23:56:51.671Z,50.98
2019-02-10T23:59:23.092Z,62.75
